createdAt,value
2022-12-28T00:03:33.928Z,96605.31
2022-12-28T00:08:35.672Z,96588.13
2022-12-28T00:13:37.556Z,96591.50
2022-12-28T00:18:39.104Z,96594.06
2022-12-28T00:23:40.610Z,96596.31
2022-12-28T00:28:42.164Z,96591.22
2022-12-28T00:33:44.341Z,96595.38
2022-12-28T00:38:47.336Z,96591.88
2022-12-28T00:43:48.988Z,96582.97
2022-12-28T00:48:50.545Z,96587.13
2022-12-28T00:53:52.112Z,96589.81
2022-12-28T00:58:59.166Z,96587.44
2022-12-28T01:04:00.914Z,96566.16
2022-12-28T01:09:02.629Z,96565.34
2022-12-28T01:14:04.307Z,96561.88
2022-12-28T01:19:07.390Z,96561.06
2022-12-28T01:24:10.364Z,96566.47
2022-12-28T01:29:11.899Z,96561.88
2022-12-28T01:34:13.455Z,96573.47
2022-12-28T01:39:14.953Z,96559.94
2022-12-28T01:44:16.443Z,96557.72
2022-12-28T01:49:37.031Z,96555.00
2022-12-28T01:54:51.997Z,96535.31
2022-12-28T02:00:06.164Z,96525.63
2022-12-28T02:05:14.837Z,96512.44
2022-12-28T02:10:41.664Z,96503.53
2022-12-28T02:15:39.345Z,96481.00
2022-12-28T02:20:55.545Z,96473.22
2022-12-28T02:26:33.137Z,96476.91
2022-12-28T02:31:41.056Z,96469.91
2022-12-28T02:36:49.766Z,96463.41
2022-12-28T02:41:52.167Z,96464.50
2022-12-28T02:47:12.431Z,96455.94
2022-12-28T02:52:23.426Z,96452.78
2022-12-28T02:57:24.892Z,96451.19
2022-12-28T03:02:34.760Z,96445.78
2022-12-28T03:08:00.876Z,96440.72
2022-12-28T03:13:06.420Z,96432.63
2022-12-28T03:18:34.733Z,96425.31
2022-12-28T03:23:59.069Z,96416.41
2022-12-28T03:29:23.558Z,96404.38
2022-12-28T03:34:25.371Z,96395.00
2022-12-28T03:40:01.100Z,96387.69
2022-12-28T03:45:45.948Z,96384.06
2022-12-28T03:50:50.915Z,96383.25
2022-12-28T03:55:53.179Z,96375.16
2022-12-28T04:00:55.467Z,96360.53
2022-12-28T04:05:57.972Z,96361.34
2022-12-28T04:11:01.197Z,96355.94
2022-12-28T04:16:08.472Z,96350.97
2022-12-28T04:21:13.539Z,96346.03
2022-12-28T04:26:18.658Z,96356.38
2022-12-28T04:31:22.872Z,96345.91
2022-12-28T04:36:31.275Z,96350.38
2022-12-28T04:41:35.189Z,96353.09
2022-12-28T04:46:36.807Z,96354.53
2022-12-28T04:51:38.390Z,96361.84
2022-12-28T04:56:40.412Z,96359.16
2022-12-28T05:01:42.100Z,96344.09
2022-12-28T05:06:43.729Z,96334.38
2022-12-28T05:11:45.260Z,96342.47
2022-12-28T05:16:50.982Z,96330.59
2022-12-28T05:21:52.473Z,96337.44
2022-12-28T05:26:54.024Z,96331.69
2022-12-28T05:31:55.698Z,96325.19
2022-12-28T05:36:57.261Z,96317.97
2022-12-28T05:42:00.796Z,96315.63
2022-12-28T05:47:02.425Z,96324.16
2022-12-28T05:52:04.051Z,96317.66
2022-12-28T05:57:05.568Z,96313.84
2022-12-28T06:02:07.165Z,96294.59
2022-12-28T06:07:08.748Z,96306.50
2022-12-28T06:12:10.227Z,96297.31
2022-12-28T06:17:11.745Z,96289.31
2022-12-28T06:22:13.223Z,96299.81
2022-12-28T06:27:14.767Z,96294.41
2022-12-28T06:32:16.275Z,96298.22
2022-12-28T06:37:17.748Z,96291.34
2022-12-28T06:42:19.282Z,96297.56
2022-12-28T06:47:20.846Z,96292.59
2022-12-28T06:52:22.362Z,96293.06
2022-12-28T06:57:23.867Z,96293.06
2022-12-28T07:02:25.493Z,96286.88
2022-12-28T07:07:27.133Z,96285.44
2022-12-28T07:12:28.604Z,96290.97
2022-12-28T07:17:30.110Z,96299.97
2022-12-28T07:22:31.608Z,96297.84
2022-12-28T07:27:34.887Z,96287.19
2022-12-28T07:32:37.911Z,96286.06
2022-12-28T07:37:39.465Z,96278.09
2022-12-28T07:42:41.024Z,96274.72
2022-12-28T07:47:42.622Z,96267.06
2022-12-28T07:52:44.455Z,96271.34
2022-12-28T07:57:45.963Z,96266.50
2022-12-28T08:02:47.543Z,96259.75
2022-12-28T08:07:49.110Z,96250.97
2022-12-28T08:12:50.634Z,96252.09
2022-12-28T08:17:54.171Z,96243.09
2022-12-28T08:22:55.724Z,96239.16
2022-12-28T08:27:57.456Z,96240.03
2022-12-28T08:32:58.965Z,96239.94
2022-12-28T08:38:00.609Z,96257.06
2022-12-28T08:43:02.595Z,96247.50
2022-12-28T08:48:04.670Z,96239.38
2022-12-28T08:53:06.294Z,96245.81
2022-12-28T08:58:08.042Z,96242.09
2022-12-28T09:03:09.830Z,96237.59
2022-12-28T09:08:11.478Z,96233.09
2022-12-28T09:13:13.021Z,96230.94
2022-12-28T09:18:14.615Z,96224.06
2022-12-28T09:23:16.389Z,96216.06
2022-12-28T09:28:18.133Z,96212.25
2022-12-28T09:34:05.514Z,96231.63
2022-12-28T09:39:03.108Z,96237.06
2022-12-28T09:44:17.079Z,96235.59
2022-12-28T09:49:25.598Z,96221.03
2022-12-28T09:54:27.151Z,96210.19
2022-12-28T09:59:34.552Z,96203.22
2022-12-28T10:04:37.784Z,96202.44
2022-12-28T10:09:39.475Z,96186.09
2022-12-28T10:14:41.545Z,96190.38
2022-12-28T10:19:48.141Z,96178.88
2022-12-28T10:24:50.335Z,96174.38
2022-12-28T10:29:52.832Z,96168.59
2022-12-28T10:35:02.179Z,96165.78
2022-12-28T10:40:09.762Z,96160.59
2022-12-28T10:45:20.277Z,96156.97
2022-12-28T10:50:38.003Z,96145.69
2022-12-28T10:55:40.023Z,96147.47
2022-12-28T11:00:44.569Z,96130.28
2022-12-28T11:05:57.322Z,96138.34
2022-12-28T11:10:59.217Z,96138.53
2022-12-28T11:16:00.920Z,96115.69
2022-12-28T11:21:02.504Z,96116.06
2022-12-28T11:26:04.254Z,96114.75
2022-12-28T11:31:07.962Z,96108.13
2022-12-28T11:36:23.096Z,96094.75
2022-12-28T11:41:31.799Z,96094.19
2022-12-28T11:46:34.868Z,96084.13
2022-12-28T11:51:37.133Z,96082.00
2022-12-28T11:56:44.684Z,96076.03
2022-12-28T12:01:47.190Z,96073.09
2022-12-28T12:06:48.738Z,96067.41
2022-12-28T12:11:52.942Z,96056.97
2022-12-28T12:17:03.534Z,96049.63
2022-12-28T12:22:12.729Z,96029.50
2022-12-28T12:27:32.360Z,96036.22
2022-12-28T12:32:43.466Z,96021.94
2022-12-28T12:38:13.433Z,96019.44
2022-12-28T12:43:39.387Z,96004.00
2022-12-28T12:49:12.587Z,95995.94
2022-12-28T12:54:17.875Z,95996.06
2022-12-28T12:59:35.049Z,95987.94
2022-12-28T13:04:40.148Z,95993.16
2022-12-28T13:09:42.587Z,95985.97
2022-12-28T13:15:09.107Z,95985.72
2022-12-28T13:20:21.483Z,95978.81
2022-12-28T13:25:26.573Z,95971.53
2022-12-28T13:30:29.327Z,95965.16
2022-12-28T13:35:33.230Z,95952.88
2022-12-28T13:40:37.706Z,95958.44
2022-12-28T13:45:39.577Z,95956.13
2022-12-28T13:50:42.398Z,95951.47
2022-12-28T13:55:48.791Z,95950.78
2022-12-28T14:00:52.621Z,95945.44
2022-12-28T14:06:00.169Z,95941.25
2022-12-28T14:11:03.056Z,95933.13
2022-12-28T14:16:05.598Z,95930.09
2022-12-28T14:21:08.274Z,95932.56
2022-12-28T14:26:22.428Z,95929.94
2022-12-28T14:31:30.093Z,95927.31
2022-12-28T14:36:36.172Z,95920.34
2022-12-28T14:41:45.548Z,95923.47
2022-12-28T14:46:47.315Z,95931.19
2022-12-28T14:51:49.052Z,95927.28
2022-12-28T14:56:59.468Z,95932.66
2022-12-28T15:02:01.224Z,95926.00
2022-12-28T15:07:08.254Z,95926.44
2022-12-28T15:12:12.974Z,95925.72
2022-12-28T15:17:15.800Z,95918.75
2022-12-28T15:22:18.610Z,95925.38
2022-12-28T15:27:20.279Z,95925.44
2022-12-28T15:32:21.843Z,95916.91
2022-12-28T15:37:23.475Z,95910.66
2022-12-28T15:42:25.021Z,95908.34
2022-12-28T15:47:26.568Z,95912.56
2022-12-28T15:52:28.100Z,95905.94
2022-12-28T15:57:29.800Z,95908.56
2022-12-28T16:02:31.663Z,95902.69
2022-12-28T16:07:33.358Z,95902.25
2022-12-28T16:12:35.220Z,95903.69
2022-12-28T16:17:46.900Z,95897.81
2022-12-28T16:22:53.725Z,95898.13
2022-12-28T16:27:55.274Z,95889.84
2022-12-28T16:32:56.820Z,95891.75
2022-12-28T16:37:58.313Z,95877.72
2022-12-28T16:43:05.089Z,95879.59
2022-12-28T16:48:07.957Z,95862.81
2022-12-28T16:53:10.189Z,95855.75
2022-12-28T16:58:11.713Z,95854.13
2022-12-28T17:03:13.391Z,95852.47
2022-12-28T17:08:14.917Z,95860.59
2022-12-28T17:13:18.342Z,95847.31
2022-12-28T17:18:19.868Z,95844.53
2022-12-28T17:23:21.427Z,95846.03
2022-12-28T17:28:23.703Z,95840.63
2022-12-28T17:33:25.219Z,95834.78
2022-12-28T17:38:26.789Z,95836.69
2022-12-28T17:43:28.472Z,95831.22
2022-12-28T17:48:30.408Z,95836.22
2022-12-28T17:53:32.345Z,95836.19
2022-12-28T17:58:34.417Z,95833.81
2022-12-28T18:03:36.560Z,95824.13
2022-12-28T18:08:38.301Z,95828.69
2022-12-28T18:13:45.723Z,95832.16
2022-12-28T18:18:47.377Z,95827.81
2022-12-28T18:23:51.520Z,95811.81
2022-12-28T18:28:54.539Z,95808.63
2022-12-28T18:33:56.191Z,95811.28
2022-12-28T18:38:57.707Z,95794.94
2022-12-28T18:44:01.572Z,95798.75
2022-12-28T18:49:03.137Z,95795.22
2022-12-28T18:54:05.607Z,95802.16
2022-12-28T18:59:07.137Z,95807.84
2022-12-28T19:04:09.961Z,95789.16
2022-12-28T19:09:12.491Z,95801.16
2022-12-28T19:14:15.393Z,95787.94
2022-12-28T19:19:18.007Z,95789.47
2022-12-28T19:24:19.883Z,95785.53
2022-12-28T19:29:21.464Z,95771.16
2022-12-28T19:34:23.044Z,95761.81
2022-12-28T19:39:24.620Z,95763.31
2022-12-28T19:44:26.287Z,95764.81
2022-12-28T19:49:27.812Z,95753.97
2022-12-28T19:54:29.566Z,95745.84
2022-12-28T19:59:31.135Z,95727.16
2022-12-28T20:04:32.793Z,95725.22
2022-12-28T20:09:34.905Z,95730.63
2022-12-28T20:14:36.490Z,95715.56
2022-12-28T20:19:38.546Z,95715.56
2022-12-28T20:24:40.085Z,95719.06
2022-12-28T20:29:41.629Z,95720.28
2022-12-28T20:34:43.203Z,95714.41
2022-12-28T20:39:44.765Z,95695.84
2022-12-28T20:44:46.323Z,95696.59
2022-12-28T20:49:47.879Z,95693.09
2022-12-28T20:54:49.447Z,95689.97
2022-12-28T20:59:51.071Z,95687.25
2022-12-28T21:04:52.630Z,95693.03
2022-12-28T21:09:54.234Z,95674.41
2022-12-28T21:14:55.751Z,95671.28
2022-12-28T21:19:57.317Z,95657.31
2022-12-28T21:24:58.867Z,95659.25
2022-12-28T21:30:00.403Z,95651.44
2022-12-28T21:35:02.053Z,95659.25
2022-12-28T21:40:08.953Z,95656.09
2022-12-28T21:45:10.990Z,95660.31
2022-12-28T21:50:12.605Z,95652.50
2022-12-28T21:55:32.935Z,95645.50
2022-12-28T22:00:53.184Z,95648.56
2022-12-28T22:06:02.629Z,95648.09
2022-12-28T22:11:22.834Z,95637.19
2022-12-28T22:16:24.787Z,95639.06
2022-12-28T22:21:27.665Z,95626.59
2022-12-28T22:26:29.227Z,95626.13
2022-12-28T22:31:30.948Z,95624.16
2022-12-28T22:36:32.981Z,95619.06
2022-12-28T22:41:34.582Z,95619.81
2022-12-28T22:46:36.299Z,95622.50
2022-12-28T22:51:38.182Z,95610.81
2022-12-28T22:56:39.701Z,95604.94
2022-12-28T23:01:41.607Z,95606.00
2022-12-28T23:06:43.280Z,95612.94
2022-12-28T23:11:44.909Z,95596.63
2022-12-28T23:16:47.162Z,95600.47
2022-12-28T23:22:07.450Z,95594.25
2022-12-28T23:27:21.678Z,95584.94
2022-12-28T23:32:23.480Z,95592.63
2022-12-28T23:37:25.223Z,95575.94
2022-12-28T23:42:27.057Z,95574.81
2022-12-28T23:47:28.663Z,95565.91
2022-12-28T23:52:31.034Z,95578.75
2022-12-28T23:57:33.022Z,95563.63
